sensor_id;sensor_type;location;lat;lon;timestamp;pressure;altitude;pressure_sealevel;temperature;humidity
3254;BME280;1639;42.804;23.342;2023-04-23T00:02:08;73530.75;;;-148.52;100.00
3254;BME280;1639;42.804;23.342;2023-04-23T00:04:36;73534.88;;;-148.52;100.00
3254;BME280;1639;42.804;23.342;2023-04-23T00:07:02;73534.88;;;-148.52;100.00
3254;BME280;1639;42.804;23.342;2023-04-23T00:09:30;73541.06;;;-148.52;100.00
3254;BME280;1639;42.804;23.342;2023-04-23T00:11:59;73553.50;;;-148.52;100.00
3254;BME280;1639;42.804;23.342;2023-04-23T00:14:26;73557.63;;;-148.52;100.00
3254;BME280;1639;42.804;23.342;2023-04-23T00:16:52;73559.69;;;-148.52;100.00
3254;BME280;1639;42.804;23.342;2023-04-23T00:19:17;73563.84;;;-148.52;100.00
3254;BME280;1639;42.804;23.342;2023-04-23T00:21:43;73572.09;;;-148.52;100.00
3254;BME280;1639;42.804;23.342;2023-04-23T00:24:09;73578.31;;;-148.52;100.00
3254;BME280;1639;42.804;23.342;2023-04-23T00:26:34;73590.72;;;-148.52;100.00
3254;BME280;1639;42.804;23.342;2023-04-23T00:29:00;73586.59;;;-148.52;100.00
3254;BME280;1639;42.804;23.342;2023-04-23T00:31:25;73570.03;;;-148.52;100.00
3254;BME280;1639;42.804;23.342;2023-04-23T00:33:52;73567.97;;;-148.52;100.00
3254;BME280;1639;42.804;23.342;2023-04-23T00:36:17;73563.84;;;-148.52;100.00
3254;BME280;1639;42.804;23.342;2023-04-23T00:38:43;73576.25;;;-148.52;100.00
3254;BME280;1639;42.804;23.342;2023-04-23T00:41:08;73584.50;;;-148.52;100.00
3254;BME280;1639;42.804;23.342;2023-04-23T00:43:34;73580.38;;;-148.52;100.00
3254;BME280;1639;42.804;23.342;2023-04-23T00:45:59;73578.31;;;-148.52;100.00
3254;BME280;1639;42.804;23.342;2023-04-23T00:48:26;73574.16;;;-148.52;100.00
3254;BME280;1639;42.804;23.342;2023-04-23T00:50:58;73578.31;;;-148.52;100.00
3254;BME280;1639;42.804;23.342;2023-04-23T00:53:27;73572.09;;;-148.52;100.00
3254;BME280;1639;42.804;23.342;2023-04-23T00:55:52;73574.16;;;-148.52;100.00
3254;BME280;1639;42.804;23.342;2023-04-23T00:58:18;73584.50;;;-148.52;100.00
3254;BME280;1639;42.804;23.342;2023-04-23T01:00:45;73601.06;;;-148.52;100.00
3254;BME280;1639;42.804;23.342;2023-04-23T01:03:12;73605.19;;;-148.52;100.00
3254;BME280;1639;42.804;23.342;2023-04-23T01:05:40;73592.78;;;-148.52;100.00
3254;BME280;1639;42.804;23.342;2023-04-23T01:08:06;73596.94;;;-148.52;100.00
3254;BME280;1639;42.804;23.342;2023-04-23T01:10:32;73601.06;;;-148.52;100.00
3254;BME280;1639;42.804;23.342;2023-04-23T01:12:58;73613.47;;;-148.52;100.00
3254;BME280;1639;42.804;23.342;2023-04-23T01:15:24;73613.47;;;-148.52;100.00
3254;BME280;1639;42.804;23.342;2023-04-23T01:17:49;73619.69;;;-148.52;100.00
3254;BME280;1639;42.804;23.342;2023-04-23T01:20:15;73621.75;;;-148.52;100.00
3254;BME280;1639;42.804;23.342;2023-04-23T01:22:41;73625.88;;;-148.52;100.00
3254;BME280;1639;42.804;23.342;2023-04-23T01:25:06;73625.88;;;-148.52;100.00
3254;BME280;1639;42.804;23.342;2023-04-23T01:27:32;73630.03;;;-148.52;100.00
3254;BME280;1639;42.804;23.342;2023-04-23T01:30:03;73627.97;;;-148.52;100.00
3254;BME280;1639;42.804;23.342;2023-04-23T01:32:30;73621.75;;;-148.52;100.00
3254;BME280;1639;42.804;23.342;2023-04-23T01:34:56;73634.16;;;-148.52;100.00
3254;BME280;1639;42.804;23.342;2023-04-23T01:37:22;73630.03;;;-148.52;100.00
3254;BME280;1639;42.804;23.342;2023-04-23T01:39:49;73648.63;;;-148.52;100.00
3254;BME280;1639;42.804;23.342;2023-04-23T01:42:15;73663.13;;;-148.52;100.00
3254;BME280;1639;42.804;23.342;2023-04-23T01:44:41;73683.81;;;-148.52;100.00
3254;BME280;1639;42.804;23.342;2023-04-23T01:47:06;73679.66;;;-148.52;100.00
3254;BME280;1639;42.804;23.342;2023-04-23T01:49:32;73675.53;;;-148.52;100.00
3254;BME280;1639;42.804;23.342;2023-04-23T01:51:57;73671.41;;;-148.52;100.00
3254;BME280;1639;42.804;23.342;2023-04-23T01:54:22;73675.53;;;-148.52;100.00
3254;BME280;1639;42.804;23.342;2023-04-23T01:56:48;73675.53;;;-148.52;100.00
3254;BME280;1639;42.804;23.342;2023-04-23T01:59:13;73692.09;;;-148.52;100.00
3254;BME280;1639;42.804;23.342;2023-04-23T02:01:43;73700.34;;;-148.52;100.00
3254;BME280;1639;42.804;23.342;2023-04-23T02:04:11;73708.63;;;-148.52;100.00
3254;BME280;1639;42.804;23.342;2023-04-23T02:06:36;73710.69;;;-148.52;100.00
3254;BME280;1639;42.804;23.342;2023-04-23T02:09:02;73718.97;;;-148.52;100.00
3254;BME280;1639;42.804;23.342;2023-04-23T02:11:27;73714.84;;;-148.52;100.00
3254;BME280;1639;42.804;23.342;2023-04-23T02:13:52;73727.25;;;-148.52;100.00
3254;BME280;1639;42.804;23.342;2023-04-23T02:16:18;73758.28;;;-148.52;100.00
3254;BME280;1639;42.804;23.342;2023-04-23T02:18:44;73778.97;;;-148.52;100.00
3254;BME280;1639;42.804;23.342;2023-04-23T02:21:09;73793.44;;;-148.52;100.00
3254;BME280;1639;42.804;23.342;2023-04-23T02:23:37;73803.78;;;-148.52;100.00
3254;BME280;1639;42.804;23.342;2023-04-23T02:26:02;73822.41;;;-148.52;100.00
3254;BME280;1639;42.804;23.342;2023-04-23T02:28:28;73849.28;;;-148.52;100.00
3254;BME280;1639;42.804;23.342;2023-04-23T02:30:53;73857.56;;;-148.52;100.00
3254;BME280;1639;42.804;23.342;2023-04-23T02:33:19;73857.56;;;-148.52;100.00
3254;BME280;1639;42.804;23.342;2023-04-23T02:35:44;73851.38;;;-148.52;100.00
3254;BME280;1639;42.804;23.342;2023-04-23T02:38:10;73826.53;;;-148.52;100.00
3254;BME280;1639;42.804;23.342;2023-04-23T02:40:35;73807.94;;;-148.52;100.00
3254;BME280;1639;42.804;23.342;2023-04-23T02:43:01;73799.66;;;-148.52;100.00
3254;BME280;1639;42.804;23.342;2023-04-23T02:45:26;73791.38;;;-148.52;100.00
3254;BME280;1639;42.804;23.342;2023-04-23T02:47:51;73781.03;;;-148.52;100.00
3254;BME280;1639;42.804;23.342;2023-04-23T02:50:17;73762.41;;;-148.52;100.00
3254;BME280;1639;42.804;23.342;2023-04-23T02:52:43;73762.41;;;-148.52;100.00
3254;BME280;1639;42.804;23.342;2023-04-23T02:55:08;73756.22;;;-148.52;100.00
3254;BME280;1639;42.804;23.342;2023-04-23T02:57:35;73747.94;;;-148.52;100.00
3254;BME280;1639;42.804;23.342;2023-04-23T03:00:01;73745.88;;;-148.52;100.00
3254;BME280;1639;42.804;23.342;2023-04-23T03:02:26;73750.00;;;-148.52;100.00
3254;BME280;1639;42.804;23.342;2023-04-23T03:04:51;73756.22;;;-148.52;100.00
3254;BME280;1639;42.804;23.342;2023-04-23T03:07:17;73752.06;;;-148.52;100.00
3254;BME280;1639;42.804;23.342;2023-04-23T03:09:42;73758.28;;;-148.52;100.00
3254;BME280;1639;42.804;23.342;2023-04-23T03:12:08;73764.47;;;-148.52;100.00
3254;BME280;1639;42.804;23.342;2023-04-23T03:14:33;73766.56;;;-148.52;100.00
3254;BME280;1639;42.804;23.342;2023-04-23T03:16:58;73760.34;;;-148.52;100.00
3254;BME280;1639;42.804;23.342;2023-04-23T03:19:24;73770.69;;;-148.52;100.00
3254;BME280;1639;42.804;23.342;2023-04-23T03:21:50;73770.69;;;-148.52;100.00
3254;BME280;1639;42.804;23.342;2023-04-23T03:24:15;73781.03;;;-148.52;100.00
3254;BME280;1639;42.804;23.342;2023-04-23T03:26:41;73778.97;;;-148.52;100.00
3254;BME280;1639;42.804;23.342;2023-04-23T03:29:06;73787.25;;;-148.52;100.00
3254;BME280;1639;42.804;23.342;2023-04-23T03:31:32;73774.81;;;-148.52;100.00
3254;BME280;1639;42.804;23.342;2023-04-23T03:33:57;73774.81;;;-148.52;100.00
3254;BME280;1639;42.804;23.342;2023-04-23T03:36:23;73774.81;;;-148.52;100.00
3254;BME280;1639;42.804;23.342;2023-04-23T03:38:48;73772.75;;;-148.52;100.00
3254;BME280;1639;42.804;23.342;2023-04-23T03:41:13;73770.69;;;-148.52;100.00
3254;BME280;1639;42.804;23.342;2023-04-23T03:43:39;73787.25;;;-148.52;99.86
3254;BME280;1639;42.804;23.342;2023-04-23T03:46:04;73787.25;;;-148.52;98.15
3254;BME280;1639;42.804;23.342;2023-04-23T03:48:30;73795.50;;;-148.52;97.89
3254;BME280;1639;42.804;23.342;2023-04-23T03:50:56;73803.78;;;-148.52;97.38
3254;BME280;1639;42.804;23.342;2023-04-23T03:53:22;73791.38;;;-148.52;97.13
3254;BME280;1639;42.804;23.342;2023-04-23T03:55:47;73801.72;;;-148.52;96.41
3254;BME280;1639;42.804;23.342;2023-04-23T03:58:12;73803.78;;;-148.52;97.34
3254;BME280;1639;42.804;23.342;2023-04-23T04:00:38;73799.66;;;-148.52;97.12
3254;BME280;1639;42.804;23.342;2023-04-23T04:03:03;73789.31;;;-148.52;96.74
3254;BME280;1639;42.804;23.342;2023-04-23T04:05:28;73789.31;;;-148.52;96.48
3254;BME280;1639;42.804;23.342;2023-04-23T04:07:54;73791.38;;;-148.52;95.57
3254;BME280;1639;42.804;23.342;2023-04-23T04:10:20;73799.66;;;-148.52;95.34
3254;BME280;1639;42.804;23.342;2023-04-23T04:12:45;73818.25;;;-148.52;95.09
3254;BME280;1639;42.804;23.342;2023-04-23T04:15:12;73812.06;;;-148.52;94.91
3254;BME280;1639;42.804;23.342;2023-04-23T04:17:38;73807.94;;;-148.52;95.97
3254;BME280;1639;42.804;23.342;2023-04-23T04:20:04;73814.13;;;-148.52;97.25
3254;BME280;1639;42.804;23.342;2023-04-23T04:22:32;73803.78;;;-148.52;98.80
3254;BME280;1639;42.804;23.342;2023-04-23T04:24:57;73803.78;;;-148.52;100.00
3254;BME280;1639;42.804;23.342;2023-04-23T04:27:23;73812.06;;;-148.52;100.00
3254;BME280;1639;42.804;23.342;2023-04-23T04:29:48;73820.34;;;-148.52;100.00
3254;BME280;1639;42.804;23.342;2023-04-23T04:32:13;73818.25;;;-148.52;100.00
3254;BME280;1639;42.804;23.342;2023-04-23T04:34:39;73816.19;;;-148.52;100.00
3254;BME280;1639;42.804;23.342;2023-04-23T04:37:04;73803.78;;;-148.52;100.00
3254;BME280;1639;42.804;23.342;2023-04-23T04:39:30;73799.66;;;-148.52;100.00
3254;BME280;1639;42.804;23.342;2023-04-23T04:41:55;73774.81;;;-148.52;100.00
3254;BME280;1639;42.804;23.342;2023-04-23T04:44:21;73758.28;;;-148.52;100.00
3254;BME280;1639;42.804;23.342;2023-04-23T04:46:47;73743.78;;;-148.52;100.00
3254;BME280;1639;42.804;23.342;2023-04-23T04:49:12;73721.03;;;-148.52;100.00
3254;BME280;1639;42.804;23.342;2023-04-23T04:51:39;73694.16;;;-148.52;100.00
3254;BME280;1639;42.804;23.342;2023-04-23T04:54:05;73671.41;;;-148.52;100.00
3254;BME280;1639;42.804;23.342;2023-04-23T04:56:34;73656.91;;;-148.52;100.00
3254;BME280;1639;42.804;23.342;2023-04-23T04:59:00;73646.56;;;-148.52;100.00
3254;BME280;1639;42.804;23.342;2023-04-23T05:01:27;73634.16;;;-148.52;100.00
3254;BME280;1639;42.804;23.342;2023-04-23T05:03:53;73623.81;;;-148.52;99.38
3254;BME280;1639;42.804;23.342;2023-04-23T05:06:19;73613.47;;;-148.52;99.84
3254;BME280;1639;42.804;23.342;2023-04-23T05:08:44;73621.75;;;-148.52;98.89
3254;BME280;1639;42.804;23.342;2023-04-23T05:11:16;73605.19;;;-148.52;98.88
3254;BME280;1639;42.804;23.342;2023-04-23T05:13:43;73590.72;;;-148.52;98.04
3254;BME280;1639;42.804;23.342;2023-04-23T05:16:08;73578.31;;;-148.52;96.52
3254;BME280;1639;42.804;23.342;2023-04-23T05:18:35;73557.63;;;-148.52;96.55
3254;BME280;1639;42.804;23.342;2023-04-23T05:21:00;73545.22;;;-148.52;96.59
3254;BME280;1639;42.804;23.342;2023-04-23T05:23:26;73524.53;;;-148.52;97.31
3254;BME280;1639;42.804;23.342;2023-04-23T05:25:51;73522.47;;;-148.52;97.44
3254;BME280;1639;42.804;23.342;2023-04-23T05:28:20;73503.84;;;-148.52;95.90
3254;BME280;1639;42.804;23.342;2023-04-23T05:30:45;73489.38;;;-148.52;95.36
3254;BME280;1639;42.804;23.342;2023-04-23T05:33:10;73464.53;;;-148.52;94.65
3254;BME280;1639;42.804;23.342;2023-04-23T05:35:36;73452.13;;;-148.52;92.82
3254;BME280;1639;42.804;23.342;2023-04-23T05:38:02;73454.19;;;-148.52;93.90
3254;BME280;1639;42.804;23.342;2023-04-23T05:40:29;73433.53;;;-148.52;92.73
3254;BME280;1639;42.804;23.342;2023-04-23T05:42:57;73431.44;;;-148.52;92.87
3254;BME280;1639;42.804;23.342;2023-04-23T05:45:22;73423.19;;;-148.52;91.34
3254;BME280;1639;42.804;23.342;2023-04-23T05:47:48;73412.84;;;-148.52;92.16
3254;BME280;1639;42.804;23.342;2023-04-23T05:50:13;73410.75;;;-148.52;92.29
3254;BME280;1639;42.804;23.342;2023-04-23T05:52:38;73433.53;;;-148.52;94.16
3254;BME280;1639;42.804;23.342;2023-04-23T05:55:05;73388.00;;;-148.52;93.30
3254;BME280;1639;42.804;23.342;2023-04-23T05:57:32;73363.19;;;-148.52;91.96
3254;BME280;1639;42.804;23.342;2023-04-23T05:59:57;73357.00;;;-148.52;90.85
3254;BME280;1639;42.804;23.342;2023-04-23T06:02:22;73321.81;;;-148.52;90.03
3254;BME280;1639;42.804;23.342;2023-04-23T06:04:49;73292.88;;;-148.52;88.08
3254;BME280;1639;42.804;23.342;2023-04-23T06:07:14;73270.13;;;-148.52;87.50
3254;BME280;1639;42.804;23.342;2023-04-23T06:09:40;73245.28;;;-148.52;87.15
3254;BME280;1639;42.804;23.342;2023-04-23T06:12:05;73249.44;;;-148.52;86.30
3254;BME280;1639;42.804;23.342;2023-04-23T06:14:31;73249.44;;;-148.52;83.61
3254;BME280;1639;42.804;23.342;2023-04-23T06:16:56;73216.34;;;-148.52;83.35
3254;BME280;1639;42.804;23.342;2023-04-23T06:19:21;73177.03;;;-148.52;83.72
3254;BME280;1639;42.804;23.342;2023-04-23T06:21:50;73158.44;;;-148.52;81.62
3254;BME280;1639;42.804;23.342;2023-04-23T06:24:16;73123.25;;;-148.52;80.75
3254;BME280;1639;42.804;23.342;2023-04-23T06:26:41;73172.91;;;-148.52;80.54
3254;BME280;1639;42.804;23.342;2023-04-23T06:29:07;73187.38;;;-148.52;82.32
3254;BME280;1639;42.804;23.342;2023-04-23T06:31:32;73170.84;;;-148.52;80.99
3254;BME280;1639;42.804;23.342;2023-04-23T06:33:57;73146.00;;;-148.52;80.83
3254;BME280;1639;42.804;23.342;2023-04-23T06:36:23;73125.34;;;-148.52;80.04
3254;BME280;1639;42.804;23.342;2023-04-23T06:38:48;73094.31;;;-148.52;77.97
3254;BME280;1639;42.804;23.342;2023-04-23T06:41:14;73065.34;;;-148.52;77.37
3254;BME280;1639;42.804;23.342;2023-04-23T06:43:41;73046.75;;;-148.52;76.83
3254;BME280;1639;42.804;23.342;2023-04-23T06:46:06;73017.78;;;-148.52;77.26
3254;BME280;1639;42.804;23.342;2023-04-23T06:48:31;72990.91;;;-148.52;76.44
3254;BME280;1639;42.804;23.342;2023-04-23T06:50:57;72970.22;;;-148.52;75.71
3254;BME280;1639;42.804;23.342;2023-04-23T06:53:23;72964.00;;;-148.52;75.89
3254;BME280;1639;42.804;23.342;2023-04-23T06:55:48;72974.34;;;-148.52;74.16
3254;BME280;1639;42.804;23.342;2023-04-23T06:58:16;72966.06;;;-148.52;73.91
3254;BME280;1639;42.804;23.342;2023-04-23T07:00:41;73009.50;;;-148.52;76.60
3254;BME280;1639;42.804;23.342;2023-04-23T07:03:06;72961.94;;;-148.52;77.40
3254;BME280;1639;42.804;23.342;2023-04-23T07:05:32;72918.50;;;-148.52;77.64
3254;BME280;1639;42.804;23.342;2023-04-23T07:07:57;72873.00;;;-148.52;72.45
3254;BME280;1639;42.804;23.342;2023-04-23T07:10:24;72846.13;;;-148.52;71.47
3254;BME280;1639;42.804;23.342;2023-04-23T07:12:49;72827.50;;;-148.52;72.68
3254;BME280;1639;42.804;23.342;2023-04-23T07:15:15;72786.16;;;-148.52;69.12
3254;BME280;1639;42.804;23.342;2023-04-23T07:17:40;72759.25;;;-148.52;69.81
3254;BME280;1639;42.804;23.342;2023-04-23T07:20:06;72728.25;;;-148.52;68.85
3254;BME280;1639;42.804;23.342;2023-04-23T07:22:33;72705.50;;;-148.52;67.78
3254;BME280;1639;42.804;23.342;2023-04-23T07:25:01;72761.34;;;-148.52;68.57
3254;BME280;1639;42.804;23.342;2023-04-23T07:27:28;72695.16;;;-148.52;68.61
3254;BME280;1639;42.804;23.342;2023-04-23T07:29:53;72676.53;;;-148.52;67.87
3254;BME280;1639;42.804;23.342;2023-04-23T07:32:19;72628.97;;;-148.52;67.29
3254;BME280;1639;42.804;23.342;2023-04-23T07:34:47;72645.53;;;-148.52;63.75
3254;BME280;1639;42.804;23.342;2023-04-23T07:37:12;72637.25;;;-148.52;68.91
3254;BME280;1639;42.804;23.342;2023-04-23T07:39:38;72645.53;;;-148.52;64.95
3254;BME280;1639;42.804;23.342;2023-04-23T07:42:03;72645.53;;;-148.52;64.81
3254;BME280;1639;42.804;23.342;2023-04-23T07:44:29;72699.28;;;-148.52;64.37
3254;BME280;1639;42.804;23.342;2023-04-23T07:46:55;72732.38;;;-148.52;65.30
3254;BME280;1639;42.804;23.342;2023-04-23T07:49:20;72738.59;;;-148.52;66.50
3254;BME280;1639;42.804;23.342;2023-04-23T07:51:47;72726.19;;;-148.52;66.88
3254;BME280;1639;42.804;23.342;2023-04-23T07:54:12;72709.63;;;-148.52;67.16
3254;BME280;1639;42.804;23.342;2023-04-23T07:56:38;72732.38;;;-148.52;66.87
3254;BME280;1639;42.804;23.342;2023-04-23T07:59:03;72732.38;;;-148.52;67.79
3254;BME280;1639;42.804;23.342;2023-04-23T08:01:31;72664.13;;;-148.52;69.29
3254;BME280;1639;42.804;23.342;2023-04-23T08:03:57;72616.56;;;-148.52;64.81
3254;BME280;1639;42.804;23.342;2023-04-23T08:06:24;72628.97;;;-148.52;62.63
3254;BME280;1639;42.804;23.342;2023-04-23T08:08:51;72618.63;;;-148.52;62.13
3254;BME280;1639;42.804;23.342;2023-04-23T08:11:17;72560.72;;;-148.52;64.24
3254;BME280;1639;42.804;23.342;2023-04-23T08:13:42;72500.75;;;-148.52;59.62
3254;BME280;1639;42.804;23.342;2023-04-23T08:16:08;72511.09;;;-148.52;59.00
3254;BME280;1639;42.804;23.342;2023-04-23T08:18:33;72488.34;;;-148.52;59.17
3254;BME280;1639;42.804;23.342;2023-04-23T08:20:59;72521.44;;;-148.52;57.96
3254;BME280;1639;42.804;23.342;2023-04-23T08:23:24;72494.56;;;-148.52;59.13
3254;BME280;1639;42.804;23.342;2023-04-23T08:25:50;72509.03;;;-148.52;57.73
3254;BME280;1639;42.804;23.342;2023-04-23T08:28:17;72480.09;;;-148.52;57.79
3254;BME280;1639;42.804;23.342;2023-04-23T08:30:42;72471.81;;;-148.52;57.42
3254;BME280;1639;42.804;23.342;2023-04-23T08:33:08;72471.81;;;-148.52;57.67
3254;BME280;1639;42.804;23.342;2023-04-23T08:35:33;72455.25;;;-148.52;54.79
3254;BME280;1639;42.804;23.342;2023-04-23T08:37:59;72473.88;;;-148.52;56.13
3254;BME280;1639;42.804;23.342;2023-04-23T08:40:28;72459.41;;;-148.52;56.73
3254;BME280;1639;42.804;23.342;2023-04-23T08:42:57;72442.84;;;-148.52;54.60
3254;BME280;1639;42.804;23.342;2023-04-23T08:45:23;72440.78;;;-148.52;53.78
3254;BME280;1639;42.804;23.342;2023-04-23T08:47:50;72420.09;;;-148.52;54.19
3254;BME280;1639;42.804;23.342;2023-04-23T08:50:17;72424.25;;;-148.52;53.09
3254;BME280;1639;42.804;23.342;2023-04-23T08:52:52;72430.44;;;-148.52;54.85
3254;BME280;1639;42.804;23.342;2023-04-23T08:55:19;72393.22;;;-148.52;54.03
3254;BME280;1639;42.804;23.342;2023-04-23T08:57:45;72428.38;;;-148.52;52.81
3254;BME280;1639;42.804;23.342;2023-04-23T09:00:14;72397.38;;;-148.52;53.46
3254;BME280;1639;42.804;23.342;2023-04-23T09:02:42;72335.31;;;-148.52;52.34
3254;BME280;1639;42.804;23.342;2023-04-23T09:05:08;72304.31;;;-148.52;49.39
3254;BME280;1639;42.804;23.342;2023-04-23T09:07:35;72335.31;;;-148.52;52.22
3254;BME280;1639;42.804;23.342;2023-04-23T09:10:01;72298.09;;;-148.52;49.24
3254;BME280;1639;42.804;23.342;2023-04-23T09:12:27;72273.28;;;-148.52;49.67
3254;BME280;1639;42.804;23.342;2023-04-23T09:14:53;72248.47;;;-148.52;50.63
3254;BME280;1639;42.804;23.342;2023-04-23T09:17:19;72258.81;;;-148.52;51.01
3254;BME280;1639;42.804;23.342;2023-04-23T09:19:45;72260.88;;;-148.52;50.07
3254;BME280;1639;42.804;23.342;2023-04-23T09:22:11;72281.56;;;-148.52;50.26
3254;BME280;1639;42.804;23.342;2023-04-23T09:24:40;72273.28;;;-148.52;50.08
3254;BME280;1639;42.804;23.342;2023-04-23T09:27:05;72271.22;;;-148.52;50.18
3254;BME280;1639;42.804;23.342;2023-04-23T09:29:31;72250.53;;;-148.52;50.83
3254;BME280;1639;42.804;23.342;2023-04-23T09:32:06;72240.22;;;-148.52;48.27
3254;BME280;1639;42.804;23.342;2023-04-23T09:34:33;72182.31;;;-148.52;49.75
3254;BME280;1639;42.804;23.342;2023-04-23T09:36:59;72159.56;;;-148.52;48.12
3254;BME280;1639;42.804;23.342;2023-04-23T09:39:25;72099.59;;;-148.52;48.19
3254;BME280;1639;42.804;23.342;2023-04-23T09:41:51;72066.50;;;-148.52;46.83
3254;BME280;1639;42.804;23.342;2023-04-23T09:44:21;72091.31;;;-148.52;45.99
3254;BME280;1639;42.804;23.342;2023-04-23T09:46:47;72101.66;;;-148.52;45.80
3254;BME280;1639;42.804;23.342;2023-04-23T09:49:13;72105.81;;;-148.52;43.95
3254;BME280;1639;42.804;23.342;2023-04-23T09:51:43;72147.16;;;-148.52;43.85
3254;BME280;1639;42.804;23.342;2023-04-23T09:54:17;72112.00;;;-148.52;45.79
3254;BME280;1639;42.804;23.342;2023-04-23T09:56:44;72134.75;;;-148.52;45.42
3254;BME280;1639;42.804;23.342;2023-04-23T09:59:27;72116.13;;;-148.52;44.79
3254;BME280;1639;42.804;23.342;2023-04-23T10:01:53;72122.34;;;-148.52;41.97
3254;BME280;1639;42.804;23.342;2023-04-23T10:04:22;72083.06;;;-148.52;42.50
3254;BME280;1639;42.804;23.342;2023-04-23T10:06:58;72103.72;;;-148.52;42.95
3254;BME280;1639;42.804;23.342;2023-04-23T10:09:25;72076.84;;;-148.52;41.50
3254;BME280;1639;42.804;23.342;2023-04-23T10:11:56;72089.25;;;-148.52;41.72
3254;BME280;1639;42.804;23.342;2023-04-23T10:14:22;72091.31;;;-148.52;43.29
3254;BME280;1639;42.804;23.342;2023-04-23T10:16:55;72072.72;;;-148.52;42.12
3254;BME280;1639;42.804;23.342;2023-04-23T10:19:23;72037.56;;;-148.52;42.63
3254;BME280;1639;42.804;23.342;2023-04-23T10:21:53;71979.66;;;-148.52;42.80
3254;BME280;1639;42.804;23.342;2023-04-23T10:24:23;71925.91;;;-148.52;42.61
3254;BME280;1639;42.804;23.342;2023-04-23T10:26:51;71944.53;;;-148.52;40.00
3254;BME280;1639;42.804;23.342;2023-04-23T10:29:20;71967.25;;;-148.52;40.33
3254;BME280;1639;42.804;23.342;2023-04-23T10:31:52;72029.28;;;-148.52;40.45
3254;BME280;1639;42.804;23.342;2023-04-23T10:34:19;72041.69;;;-148.52;41.31
3254;BME280;1639;42.804;23.342;2023-04-23T10:36:44;71996.22;;;-148.52;40.43
3254;BME280;1639;42.804;23.342;2023-04-23T10:39:11;71979.66;;;-148.52;40.51
3254;BME280;1639;42.804;23.342;2023-04-23T10:41:39;71956.94;;;-148.52;40.00
3254;BME280;1639;42.804;23.342;2023-04-23T10:44:06;71927.97;;;-148.52;42.54
3254;BME280;1639;42.804;23.342;2023-04-23T10:46:35;71913.50;;;-148.52;38.74
3254;BME280;1639;42.804;23.342;2023-04-23T10:49:10;71923.84;;;-148.52;38.16
3254;BME280;1639;42.804;23.342;2023-04-23T10:51:39;71911.44;;;-148.52;40.85
3254;BME280;1639;42.804;23.342;2023-04-23T10:54:05;71917.63;;;-148.52;38.31
3254;BME280;1639;42.804;23.342;2023-04-23T10:56:31;71944.53;;;-148.52;37.73
3254;BME280;1639;42.804;23.342;2023-04-23T10:58:57;71907.31;;;-148.52;40.26
3254;BME280;1639;42.804;23.342;2023-04-23T11:01:27;71849.41;;;-148.52;38.98
3254;BME280;1639;42.804;23.342;2023-04-23T11:03:54;71832.88;;;-148.52;36.44
3254;BME280;1639;42.804;23.342;2023-04-23T11:12:50;71942.44;;;-148.52;35.14
3254;BME280;1639;42.804;23.342;2023-04-23T11:14:52;71952.78;;;-148.52;35.53
3254;BME280;1639;42.804;23.342;2023-04-23T11:20:20;71824.59;;;-148.52;37.16
3254;BME280;1639;42.804;23.342;2023-04-23T11:22:47;71764.63;;;-148.52;36.87
3254;BME280;1639;42.804;23.342;2023-04-23T11:25:14;71729.50;;;-148.52;33.83
3254;BME280;1639;42.804;23.342;2023-04-23T11:27:44;71748.09;;;-148.52;35.03
3254;BME280;1639;42.804;23.342;2023-04-23T11:30:28;71729.50;;;-148.52;32.50
3254;BME280;1639;42.804;23.342;2023-04-23T11:32:55;71723.28;;;-148.52;33.23
3254;BME280;1639;42.804;23.342;2023-04-23T11:35:22;71706.75;;;-148.52;33.05
3254;BME280;1639;42.804;23.342;2023-04-23T11:37:52;71733.63;;;-148.52;33.44
3254;BME280;1639;42.804;23.342;2023-04-23T11:40:18;71818.38;;;-148.52;34.32
3254;BME280;1639;42.804;23.342;2023-04-23T11:42:51;71816.31;;;-148.52;35.01
3254;BME280;1639;42.804;23.342;2023-04-23T11:45:19;71901.09;;;-148.52;33.22
3254;BME280;1639;42.804;23.342;2023-04-23T11:47:46;71896.97;;;-148.52;33.90
3254;BME280;1639;42.804;23.342;2023-04-23T11:50:26;71915.56;;;-148.52;36.85
3254;BME280;1639;42.804;23.342;2023-04-23T11:52:52;71876.28;;;-148.52;34.64
3254;BME280;1639;42.804;23.342;2023-04-23T11:55:19;71930.03;;;-148.52;35.48
3254;BME280;1639;42.804;23.342;2023-04-23T11:57:47;71888.69;;;-148.52;33.11
3254;BME280;1639;42.804;23.342;2023-04-23T12:00:18;71839.06;;;-148.52;33.48
3254;BME280;1639;42.804;23.342;2023-04-23T12:02:54;71787.38;;;-148.52;32.75
3254;BME280;1639;42.804;23.342;2023-04-23T12:05:22;71760.50;;;-148.52;33.03
3254;BME280;1639;42.804;23.342;2023-04-23T12:07:49;71743.97;;;-148.52;32.00
3254;BME280;1639;42.804;23.342;2023-04-23T12:10:19;71721.22;;;-148.52;31.42
3254;BME280;1639;42.804;23.342;2023-04-23T12:12:52;71766.69;;;-148.52;29.97
3254;BME280;1639;42.804;23.342;2023-04-23T12:15:18;71748.09;;;-148.52;32.00
3254;BME280;1639;42.804;23.342;2023-04-23T12:17:48;71789.44;;;-148.52;30.95
3254;BME280;1639;42.804;23.342;2023-04-23T12:20:19;71818.38;;;-148.52;31.20
3254;BME280;1639;42.804;23.342;2023-04-23T12:22:45;71832.88;;;-148.52;33.25
3254;BME280;1639;42.804;23.342;2023-04-23T12:25:10;71870.09;;;-148.52;35.15
3254;BME280;1639;42.804;23.342;2023-04-23T12:27:40;71913.50;;;-148.52;35.39
3254;BME280;1639;42.804;23.342;2023-04-23T12:30:07;71946.59;;;-148.52;35.32
3254;BME280;1639;42.804;23.342;2023-04-23T12:32:33;71963.13;;;-148.52;36.28
3254;BME280;1639;42.804;23.342;2023-04-23T12:34:58;71930.03;;;-148.52;34.96
3254;BME280;1639;42.804;23.342;2023-04-23T12:37:25;71934.19;;;-148.52;35.57
3254;BME280;1639;42.804;23.342;2023-04-23T12:39:51;71963.13;;;-148.52;34.69
3254;BME280;1639;42.804;23.342;2023-04-23T12:42:18;71942.44;;;-148.52;35.33
3254;BME280;1639;42.804;23.342;2023-04-23T12:44:44;71930.03;;;-148.52;32.88
3254;BME280;1639;42.804;23.342;2023-04-23T12:47:10;71911.44;;;-148.52;35.07
3254;BME280;1639;42.804;23.342;2023-04-23T12:49:37;71874.22;;;-148.52;35.10
3254;BME280;1639;42.804;23.342;2023-04-23T12:52:04;71888.69;;;-148.52;32.86